createdAt,value
2023-04-09T00:00:10.392Z,21.20
2023-04-09T00:02:57.421Z,23.27
2023-04-09T00:05:45.040Z,19.53
2023-04-09T00:08:33.506Z,23.20
2023-04-09T00:11:20.943Z,17.67
2023-04-09T00:14:07.775Z,17.90
2023-04-09T00:16:55.009Z,18.07
2023-04-09T00:19:42.504Z,18.90
2023-04-09T00:22:29.500Z,20.17
2023-04-09T00:25:18.292Z,21.43
2023-04-09T00:28:05.319Z,20.10
2023-04-09T00:30:52.038Z,21.00
2023-04-09T00:33:38.797Z,26.37
2023-04-09T00:36:27.133Z,21.07
2023-04-09T00:39:14.257Z,19.73
2023-04-09T00:42:03.552Z,19.07
2023-04-09T00:44:50.493Z,16.90
2023-04-09T00:47:37.485Z,17.57
2023-04-09T00:50:24.236Z,21.27
2023-04-09T00:53:12.367Z,17.47
2023-04-09T00:55:59.943Z,20.20
2023-04-09T00:58:48.548Z,20.33
2023-04-09T01:01:36.217Z,25.73
2023-04-09T01:04:24.205Z,18.27
2023-04-09T01:07:24.245Z,17.50
2023-04-09T01:10:20.104Z,20.73
2023-04-09T01:13:12.498Z,21.50
2023-04-09T01:16:04.437Z,19.00
2023-04-09T01:18:57.740Z,25.37
2023-04-09T01:21:46.635Z,23.17
2023-04-09T01:24:46.156Z,29.03
2023-04-09T01:27:45.142Z,30.33
2023-04-09T01:30:33.383Z,27.07
2023-04-09T01:33:21.926Z,25.40
2023-04-09T01:36:10.374Z,29.83
2023-04-09T01:38:58.206Z,25.37
2023-04-09T01:41:45.238Z,25.93
2023-04-09T01:44:33.106Z,28.40
2023-04-09T01:47:22.454Z,25.93
2023-04-09T01:50:12.540Z,23.50
2023-04-09T01:53:01.383Z,23.63
2023-04-09T01:55:48.639Z,23.90
2023-04-09T01:58:36.224Z,23.90
2023-04-09T02:01:27.599Z,24.67
2023-04-09T02:04:23.102Z,26.73
2023-04-09T02:07:15.618Z,25.13
2023-04-09T02:10:03.365Z,26.17
2023-04-09T02:12:52.631Z,20.30
2023-04-09T02:15:41.544Z,23.37
2023-04-09T02:18:30.207Z,23.30
2023-04-09T02:21:18.768Z,20.63
2023-04-09T02:24:05.922Z,20.90
2023-04-09T02:26:52.869Z,20.23
2023-04-09T02:29:40.950Z,18.97
2023-04-09T02:32:27.768Z,24.40
2023-04-09T02:35:15.359Z,17.23
2023-04-09T02:38:04.174Z,22.30
2023-04-09T02:40:51.625Z,21.87
2023-04-09T02:43:38.678Z,23.43
2023-04-09T02:46:25.417Z,20.67
2023-04-09T02:49:12.448Z,16.83
2023-04-09T02:51:59.260Z,22.60
2023-04-09T02:54:47.462Z,21.70
2023-04-09T02:57:34.723Z,19.90
2023-04-09T03:00:21.575Z,21.77
2023-04-09T03:03:08.537Z,20.27
2023-04-09T03:05:56.474Z,22.83
2023-04-09T03:08:43.621Z,16.83
2023-04-09T03:11:31.721Z,23.37
2023-04-09T03:14:18.567Z,16.80
2023-04-09T03:17:05.400Z,18.07
2023-04-09T03:19:52.462Z,22.73
2023-04-09T03:22:39.979Z,18.37
2023-04-09T03:25:27.239Z,18.73
2023-04-09T03:28:16.056Z,21.37
2023-04-09T03:31:03.073Z,20.83
2023-04-09T03:33:50.050Z,23.63
2023-04-09T03:36:37.245Z,22.93
2023-04-09T03:39:24.443Z,18.93
2023-04-09T03:42:11.297Z,21.67
2023-04-09T03:44:59.620Z,20.07
2023-04-09T03:47:46.945Z,21.00
2023-04-09T03:50:38.616Z,20.57
2023-04-09T03:53:25.429Z,21.40
2023-04-09T03:56:12.939Z,22.30
2023-04-09T03:58:59.894Z,21.97
2023-04-09T04:01:48.563Z,23.07
2023-04-09T04:04:35.560Z,22.83
2023-04-09T04:07:22.597Z,19.63
2023-04-09T04:10:10.968Z,19.27
2023-04-09T04:12:57.421Z,15.27
2023-04-09T04:15:44.698Z,23.23
2023-04-09T04:18:33.051Z,19.27
2023-04-09T04:21:19.918Z,24.20
2023-04-09T04:24:07.405Z,17.90
2023-04-09T04:26:54.619Z,25.37
2023-04-09T04:29:41.635Z,19.57
2023-04-09T04:32:28.430Z,19.27
2023-04-09T04:35:16.918Z,19.57
2023-04-09T04:38:03.991Z,19.13
2023-04-09T04:40:50.868Z,19.50
2023-04-09T04:43:37.561Z,16.50
2023-04-09T04:46:24.767Z,20.80
2023-04-09T04:49:11.607Z,18.83
2023-04-09T04:52:00.186Z,17.27
2023-04-09T04:54:47.402Z,20.70
2023-04-09T04:57:34.329Z,20.73
2023-04-09T05:00:21.295Z,19.30
2023-04-09T05:03:08.291Z,18.80
2023-04-09T05:05:55.602Z,19.57
2023-04-09T05:08:44.237Z,22.73
2023-04-09T05:11:31.318Z,18.13
2023-04-09T05:14:18.566Z,18.83
2023-04-09T05:17:06.246Z,17.23
2023-04-09T05:19:54.271Z,21.77
2023-04-09T05:22:41.440Z,26.53
2023-04-09T05:25:30.110Z,21.67
2023-04-09T05:28:17.945Z,24.67
2023-04-09T05:31:04.967Z,22.23
2023-04-09T05:34:01.725Z,23.57
2023-04-09T05:36:48.909Z,21.50
2023-04-09T05:39:35.969Z,19.40
2023-04-09T05:42:24.479Z,23.83
2023-04-09T05:45:14.426Z,20.97
2023-04-09T05:48:01.836Z,24.13
2023-04-09T05:50:55.377Z,20.47
2023-04-09T05:53:42.922Z,18.63
2023-04-09T05:56:29.809Z,19.90
2023-04-09T05:59:18.521Z,20.07
2023-04-09T06:02:05.773Z,19.57
2023-04-09T06:04:53.153Z,19.00
2023-04-09T06:07:42.807Z,21.23
2023-04-09T06:10:30.006Z,20.97
2023-04-09T06:13:17.217Z,16.80
2023-04-09T06:16:07.566Z,19.20
2023-04-09T06:18:57.107Z,19.83
2023-04-09T06:21:44.118Z,18.60
2023-04-09T06:24:33.777Z,20.63
2023-04-09T06:27:22.208Z,19.47
2023-04-09T06:30:10.810Z,17.63
2023-04-09T06:32:59.172Z,21.63
2023-04-09T06:35:47.031Z,23.97
2023-04-09T06:38:33.765Z,19.07
2023-04-09T06:41:22.544Z,19.93
2023-04-09T06:44:09.408Z,17.50
2023-04-09T06:46:56.612Z,16.37
2023-04-09T06:49:46.776Z,18.03
2023-04-09T06:52:33.884Z,15.80
2023-04-09T06:55:20.872Z,15.20
2023-04-09T06:58:08.100Z,21.23
2023-04-09T07:00:55.476Z,18.17
2023-04-09T07:03:42.537Z,16.47
2023-04-09T07:06:31.086Z,17.27
2023-04-09T07:09:18.565Z,18.20
2023-04-09T07:12:05.586Z,16.03
2023-04-09T07:14:52.701Z,16.03
2023-04-09T07:17:41.160Z,15.97
2023-04-09T07:20:28.113Z,16.47
2023-04-09T07:23:16.584Z,18.20
2023-04-09T07:26:04.147Z,16.53
2023-04-09T07:28:51.663Z,19.10
2023-04-09T07:31:38.877Z,13.67
2023-04-09T07:34:26.296Z,15.07
2023-04-09T07:37:13.174Z,18.20
2023-04-09T07:40:01.737Z,14.93
2023-04-09T07:42:52.098Z,14.13
2023-04-09T07:45:39.109Z,15.90
2023-04-09T07:48:28.228Z,14.20
2023-04-09T07:51:15.389Z,14.83
2023-04-09T07:54:01.960Z,13.03
2023-04-09T07:56:50.553Z,12.80
2023-04-09T07:59:37.542Z,11.83
2023-04-09T08:02:24.516Z,14.03
2023-04-09T08:05:12.067Z,14.65
2023-04-09T08:07:59.235Z,11.90
2023-04-09T08:10:46.456Z,12.63
2023-04-09T08:13:34.528Z,11.88
2023-04-09T08:16:23.697Z,9.88
2023-04-09T08:19:11.218Z,11.73
2023-04-09T08:21:58.937Z,12.75
2023-04-09T08:24:45.800Z,12.38
2023-04-09T08:27:34.098Z,11.77
2023-04-09T08:30:22.269Z,11.30
2023-04-09T08:33:09.161Z,11.07
2023-04-09T08:35:58.024Z,11.85
2023-04-09T08:38:47.155Z,10.75
2023-04-09T08:41:35.370Z,10.20
2023-04-09T08:44:22.473Z,10.50
2023-04-09T08:47:12.702Z,7.65
2023-04-09T08:49:59.437Z,9.13
2023-04-09T08:52:48.880Z,8.25
2023-04-09T08:55:37.477Z,8.60
2023-04-09T08:58:24.421Z,10.65
2023-04-09T09:01:23.613Z,9.13
2023-04-09T09:04:12.488Z,9.38
2023-04-09T09:07:08.063Z,8.48
2023-04-09T09:09:56.398Z,10.63
2023-04-09T09:12:44.058Z,8.25
2023-04-09T09:15:32.077Z,11.13
2023-04-09T09:18:19.963Z,10.02
2023-04-09T09:21:16.658Z,10.45
2023-04-09T09:24:17.234Z,8.52
2023-04-09T09:27:04.253Z,10.03
2023-04-09T09:29:51.069Z,10.07
2023-04-09T09:32:39.198Z,8.30
2023-04-09T09:35:26.674Z,9.20
2023-04-09T09:38:16.103Z,8.00
2023-04-09T09:41:18.023Z,9.10
2023-04-09T09:44:07.337Z,13.03
2023-04-09T09:46:54.844Z,10.70
2023-04-09T09:49:41.722Z,9.90
2023-04-09T09:52:28.897Z,10.50
2023-04-09T09:55:19.126Z,8.43
2023-04-09T09:58:13.720Z,9.73
2023-04-09T10:01:02.997Z,8.20
2023-04-09T10:03:54.168Z,9.50
2023-04-09T10:06:53.732Z,8.43
2023-04-09T10:09:42.989Z,9.23
2023-04-09T10:12:31.498Z,8.83
2023-04-09T10:15:19.343Z,9.60
2023-04-09T10:18:06.595Z,10.13
2023-04-09T10:20:59.922Z,8.53
2023-04-09T10:23:50.933Z,11.27
2023-04-09T10:26:41.668Z,9.57
2023-04-09T10:29:30.656Z,8.70
2023-04-09T10:32:22.634Z,7.00
2023-04-09T10:35:11.720Z,7.13
2023-04-09T10:38:06.118Z,8.63
2023-04-09T10:40:56.484Z,7.27
2023-04-09T10:43:54.604Z,8.23
2023-04-09T10:47:00.271Z,8.38
2023-04-09T10:49:52.647Z,8.30
2023-04-09T10:55:38.870Z,9.35
2023-04-09T10:58:26.158Z,8.27
2023-04-09T11:01:24.159Z,7.35
2023-04-09T11:04:21.609Z,5.55
2023-04-09T11:07:10.106Z,8.10
2023-04-09T11:09:57.059Z,7.88
2023-04-09T11:12:43.770Z,7.78
2023-04-09T11:15:31.104Z,8.45
2023-04-09T11:18:22.779Z,7.25
2023-04-09T11:21:13.491Z,5.82
2023-04-09T11:24:00.434Z,8.50
2023-04-09T11:26:48.721Z,7.03
2023-04-09T11:29:36.333Z,6.45
2023-04-09T11:32:23.444Z,7.78
2023-04-09T11:35:15.053Z,7.80
2023-04-09T11:38:07.895Z,7.15
2023-04-09T11:40:59.137Z,6.40
2023-04-09T11:43:46.383Z,7.60
2023-04-09T11:46:34.365Z,6.97
2023-04-09T11:49:22.146Z,7.47
2023-04-09T11:52:09.537Z,7.97
2023-04-09T11:55:01.300Z,8.32
2023-04-09T11:57:48.440Z,8.73
2023-04-09T12:00:35.753Z,8.57
2023-04-09T12:03:30.193Z,8.63
2023-04-09T12:06:22.858Z,9.90
2023-04-09T12:09:13.674Z,8.32
2023-04-09T12:12:02.229Z,9.93
2023-04-09T12:14:51.969Z,8.18
2023-04-09T12:17:39.357Z,9.52
2023-04-09T12:20:34.592Z,9.70
2023-04-09T12:23:21.593Z,7.93
2023-04-09T12:26:08.764Z,9.10
2023-04-09T12:28:57.227Z,8.40
2023-04-09T12:31:44.641Z,9.10
2023-04-09T12:34:31.657Z,9.32
2023-04-09T12:37:18.486Z,10.27
2023-04-09T12:40:05.752Z,8.68
2023-04-09T12:42:52.860Z,8.82
2023-04-09T12:45:40.991Z,7.10
2023-04-09T12:48:28.261Z,9.80
2023-04-09T12:51:16.005Z,8.82
2023-04-09T12:54:04.027Z,9.05
2023-04-09T12:56:51.833Z,9.63
2023-04-09T12:59:38.854Z,8.98
2023-04-09T13:02:27.331Z,8.68
2023-04-09T13:05:14.283Z,9.75
2023-04-09T13:08:01.021Z,9.32
2023-04-09T13:10:48.224Z,7.65
2023-04-09T13:13:34.883Z,7.03
2023-04-09T13:16:21.948Z,8.40
2023-04-09T13:19:11.246Z,7.60
2023-04-09T13:21:58.034Z,7.47
2023-04-09T13:24:44.903Z,9.23
2023-04-09T13:27:32.006Z,8.68
2023-04-09T13:30:19.481Z,8.85
2023-04-09T13:33:06.348Z,8.88
2023-04-09T13:35:54.528Z,8.27
2023-04-09T13:38:41.986Z,9.07
2023-04-09T13:41:31.427Z,9.00
2023-04-09T13:44:18.652Z,8.77
2023-04-09T13:47:05.380Z,8.10
2023-04-09T13:49:53.154Z,7.40
2023-04-09T13:52:41.726Z,8.60
2023-04-09T13:55:28.638Z,7.43
2023-04-09T13:58:15.598Z,8.27
2023-04-09T14:01:03.248Z,10.13
2023-04-09T14:03:55.714Z,8.90
2023-04-09T14:06:43.343Z,5.80
2023-04-09T14:09:31.967Z,8.37
2023-04-09T14:12:18.928Z,8.27
2023-04-09T14:15:07.265Z,7.73
2023-04-09T14:17:54.460Z,7.77
2023-04-09T14:20:41.312Z,8.20
2023-04-09T14:23:28.298Z,6.60
2023-04-09T14:26:17.144Z,7.60
2023-04-09T14:29:04.440Z,7.43
2023-04-09T14:31:51.832Z,8.53
2023-04-09T14:34:38.864Z,6.93
2023-04-09T14:37:25.912Z,7.20
2023-04-09T14:40:13.589Z,8.10
2023-04-09T14:43:02.204Z,8.10
2023-04-09T14:45:49.191Z,8.88
2023-04-09T14:48:36.022Z,8.52
2023-04-09T14:51:23.454Z,7.85
2023-04-09T14:54:10.335Z,7.82
2023-04-09T14:56:58.298Z,8.77
2023-04-09T14:59:46.872Z,7.63
2023-04-09T15:02:35.228Z,8.40
2023-04-09T15:05:22.767Z,9.37
2023-04-09T15:08:09.194Z,9.13
2023-04-09T15:10:55.958Z,7.90
2023-04-09T15:13:42.948Z,7.67
2023-04-09T15:16:33.340Z,9.37
2023-04-09T15:19:20.373Z,8.17
2023-04-09T15:22:07.034Z,7.53
2023-04-09T15:24:54.592Z,8.40
2023-04-09T15:27:41.324Z,8.60
2023-04-09T15:30:28.407Z,6.73
2023-04-09T15:33:16.981Z,7.60
2023-04-09T15:36:04.245Z,6.93
2023-04-09T15:38:54.270Z,6.30
2023-04-09T15:41:41.391Z,8.77
2023-04-09T15:44:28.552Z,7.47
2023-04-09T15:47:15.638Z,8.33
2023-04-09T15:50:04.180Z,6.63
2023-04-09T15:52:51.263Z,8.63
2023-04-09T15:55:38.345Z,7.20
2023-04-09T15:58:25.279Z,8.27
2023-04-09T16:01:15.137Z,7.57
2023-04-09T16:04:02.190Z,7.60
2023-04-09T16:06:50.635Z,7.97
2023-04-09T16:09:37.364Z,7.93
2023-04-09T16:12:24.942Z,9.87
2023-04-09T16:15:13.207Z,8.80
2023-04-09T16:18:00.600Z,10.70
2023-04-09T16:20:47.414Z,10.10
2023-04-09T16:23:35.573Z,7.30
2023-04-09T16:26:22.640Z,8.70
2023-04-09T16:29:09.521Z,9.33
2023-04-09T16:31:57.040Z,7.77
2023-04-09T16:34:44.202Z,7.87
2023-04-09T16:37:31.564Z,6.53
2023-04-09T16:40:24.211Z,8.00
2023-04-09T16:43:11.510Z,9.87
2023-04-09T16:45:58.409Z,8.75
2023-04-09T16:48:45.699Z,8.03
2023-04-09T16:51:32.174Z,9.00
2023-04-09T16:54:19.321Z,9.33
2023-04-09T16:57:07.285Z,8.43
2023-04-09T16:59:54.267Z,10.23
2023-04-09T17:02:41.374Z,8.53
2023-04-09T17:05:28.526Z,8.60
2023-04-09T17:08:35.910Z,9.10
2023-04-09T17:11:23.679Z,7.53
2023-04-09T17:14:12.157Z,6.17
2023-04-09T17:16:59.109Z,10.30
2023-04-09T17:19:46.189Z,7.63
2023-04-09T17:22:35.075Z,8.23
2023-04-09T17:25:22.057Z,6.40
2023-04-09T17:28:09.241Z,6.43
2023-04-09T17:30:57.451Z,6.90
2023-04-09T17:33:47.949Z,6.57
2023-04-09T17:36:35.034Z,5.50
2023-04-09T17:39:24.106Z,6.63
2023-04-09T17:42:11.902Z,9.40
2023-04-09T17:44:59.133Z,5.63
2023-04-09T17:47:47.985Z,7.57
2023-04-09T17:50:35.110Z,7.00
2023-04-09T17:53:22.454Z,6.83
2023-04-09T17:56:11.113Z,6.47
2023-04-09T17:58:58.140Z,6.00
2023-04-09T18:01:45.145Z,3.70
2023-04-09T18:04:35.425Z,6.47
2023-04-09T18:07:23.043Z,5.07
2023-04-09T18:10:10.483Z,4.17
2023-04-09T18:12:57.445Z,5.23
2023-04-09T18:15:44.824Z,7.57
2023-04-09T18:18:31.409Z,4.97
2023-04-09T18:21:19.574Z,5.87
2023-04-09T18:24:06.750Z,5.03
2023-04-09T18:26:54.298Z,5.53
2023-04-09T18:29:41.847Z,4.10
2023-04-09T18:32:28.790Z,4.43
2023-04-09T18:35:17.469Z,5.57
2023-04-09T18:38:05.760Z,10.50
2023-04-09T18:40:52.374Z,4.70
2023-04-09T18:43:39.158Z,6.90
2023-04-09T18:46:26.656Z,5.47
2023-04-09T18:49:13.763Z,5.57
2023-04-09T18:52:00.826Z,4.03
2023-04-09T18:54:49.192Z,6.40
2023-04-09T18:57:37.353Z,12.40
2023-04-09T19:00:24.505Z,8.27
2023-04-09T19:03:12.274Z,8.63
2023-04-09T19:06:00.174Z,5.23
2023-04-09T19:08:47.558Z,6.60
2023-04-09T19:11:35.876Z,3.87
2023-04-09T19:14:23.118Z,4.40
2023-04-09T19:17:10.143Z,6.47
2023-04-09T19:19:57.083Z,4.37
2023-04-09T19:22:47.916Z,6.27
2023-04-09T19:25:35.262Z,5.23
2023-04-09T19:28:23.519Z,6.17
2023-04-09T19:31:12.747Z,4.60
2023-04-09T19:33:59.378Z,6.37
2023-04-09T19:36:46.231Z,5.03
2023-04-09T19:39:34.387Z,6.57
2023-04-09T19:42:21.264Z,7.00
2023-04-09T19:45:11.089Z,5.57
2023-04-09T19:47:58.403Z,4.43
2023-04-09T19:50:45.436Z,6.20
2023-04-09T19:53:32.857Z,5.70
2023-04-09T19:56:20.031Z,6.50
2023-04-09T19:59:07.330Z,6.30
2023-04-09T20:01:55.734Z,6.17
2023-04-09T20:04:42.690Z,5.27
2023-04-09T20:07:29.660Z,5.23
2023-04-09T20:10:17.038Z,5.43
2023-04-09T20:13:03.984Z,6.53
2023-04-09T20:15:51.492Z,6.00
2023-04-09T20:18:39.855Z,7.07
2023-04-09T20:21:37.981Z,6.93
2023-04-09T20:24:26.977Z,7.27
2023-04-09T20:27:13.950Z,7.17
2023-04-09T20:30:01.835Z,6.90
2023-04-09T20:32:49.734Z,8.87
2023-04-09T20:35:38.545Z,10.47
2023-04-09T20:38:26.208Z,8.17
2023-04-09T20:41:13.263Z,8.53
2023-04-09T20:43:59.858Z,7.87
2023-04-09T20:46:46.776Z,8.50
2023-04-09T20:49:34.006Z,8.10
2023-04-09T20:52:23.569Z,8.50
2023-04-09T20:55:10.751Z,10.07
2023-04-09T20:57:58.436Z,9.37
2023-04-09T21:00:45.733Z,5.47
2023-04-09T21:03:33.078Z,7.27
2023-04-09T21:06:20.393Z,8.20
2023-04-09T21:09:08.840Z,7.97
2023-04-09T21:11:55.442Z,9.00
2023-04-09T21:14:42.347Z,7.13
2023-04-09T21:17:29.384Z,5.57
2023-04-09T21:20:16.799Z,6.67
2023-04-09T21:23:03.438Z,10.80
2023-04-09T21:25:51.453Z,8.13
2023-04-09T21:28:38.621Z,7.17
2023-04-09T21:31:25.997Z,8.30
2023-04-09T21:34:12.926Z,11.23
2023-04-09T21:36:59.954Z,8.73
2023-04-09T21:39:48.254Z,6.20
2023-04-09T21:42:36.340Z,8.80
2023-04-09T21:45:23.623Z,7.90
2023-04-09T21:48:10.136Z,8.30
2023-04-09T21:50:57.153Z,8.60
2023-04-09T21:53:44.509Z,7.70
2023-04-09T21:56:31.391Z,5.47
2023-04-09T21:59:19.435Z,8.00
2023-04-09T22:02:06.853Z,6.20
2023-04-09T22:04:53.789Z,9.07
2023-04-09T22:07:42.624Z,6.73
2023-04-09T22:10:29.658Z,6.83
2023-04-09T22:13:17.193Z,5.73
2023-04-09T22:16:06.061Z,5.53
2023-04-09T22:18:55.016Z,6.17
2023-04-09T22:21:42.327Z,5.73
2023-04-09T22:24:30.306Z,6.97
2023-04-09T22:27:17.446Z,8.00
2023-04-09T22:30:04.796Z,8.97
2023-04-09T22:32:52.961Z,7.63
2023-04-09T22:35:40.106Z,7.40
2023-04-09T22:38:27.273Z,6.67
2023-04-09T22:41:16.034Z,7.63
2023-04-09T22:44:02.680Z,7.60
2023-04-09T22:46:49.831Z,6.73
2023-04-09T22:49:38.728Z,6.27
2023-04-09T22:52:25.694Z,8.27
2023-04-09T22:55:13.680Z,7.60
2023-04-09T22:58:01.049Z,7.47
2023-04-09T23:00:48.287Z,6.53
2023-04-09T23:03:35.672Z,4.87
2023-04-09T23:06:25.251Z,5.73
2023-04-09T23:09:12.604Z,5.87
2023-04-09T23:11:59.624Z,7.23
2023-04-09T23:14:49.315Z,5.27
2023-04-09T23:17:36.936Z,7.50
2023-04-09T23:20:24.444Z,8.73
2023-04-09T23:23:12.568Z,11.23
2023-04-09T23:25:59.703Z,8.07
2023-04-09T23:28:46.871Z,7.10
2023-04-09T23:31:34.245Z,7.50
2023-04-09T23:34:21.227Z,5.90
2023-04-09T23:37:09.396Z,8.33
2023-04-09T23:40:00.185Z,6.47
2023-04-09T23:42:48.014Z,7.43
2023-04-09T23:45:35.366Z,6.37
2023-04-09T23:48:22.365Z,7.90
2023-04-09T23:51:09.360Z,8.23
2023-04-09T23:53:56.563Z,7.30
2023-04-09T23:56:45.014Z,8.10
2023-04-09T23:59:35.647Z,7.97
